Terminal Aerodrome Forecast
Issued by NWS Greer, SC

Home | Current Version | Previous Version | Text Only | Print | Product List | Glossary On
Versions: 1 2 3 4 5 6 7 8 9 10 11 12 13 14 15 16 17 18 19
000
FTUS42 KGSP 242320
TAFAVL
TAF
KAVL 242320Z 2500/2524 16004KT P6SM FEW250
     FM251400 33005KT P6SM SCT200
     FM251700 32006KT P6SM BKN120
     FM252300 33008KT P6SM SCT080 BKN120=

USA.gov is the U.S. government's official web portal to all federal, state and local government web resources and services.